createdAt,value
2018-09-17T00:00:26.651Z,18.00
2018-09-17T00:00:59.155Z,18.00
2018-09-17T00:01:32.098Z,18.00
2018-09-17T00:02:05.375Z,18.00
2018-09-17T00:02:37.880Z,18.00
2018-09-17T00:03:10.376Z,18.00
2018-09-17T00:03:42.887Z,18.00
2018-09-17T00:04:15.411Z,18.00
2018-09-17T00:04:47.926Z,18.00
2018-09-17T00:05:20.434Z,18.00
2018-09-17T00:05:52.936Z,18.00
2018-09-17T00:06:26.213Z,18.00
2018-09-17T00:06:58.739Z,18.00
2018-09-17T00:07:31.252Z,18.00
2018-09-17T00:08:03.783Z,18.00
2018-09-17T00:08:36.283Z,18.00
2018-09-17T00:09:08.774Z,18.00
2018-09-17T00:09:42.038Z,18.00
2018-09-17T00:10:15.318Z,18.00
2018-09-17T00:10:48.590Z,17.90
2018-09-17T00:11:21.100Z,18.00
2018-09-17T00:11:53.607Z,17.90
2018-09-17T00:12:26.123Z,17.90
2018-09-17T00:12:59.387Z,17.90
2018-09-17T00:13:31.888Z,17.90
2018-09-17T00:14:04.380Z,17.90
2018-09-17T00:14:36.887Z,17.90
2018-09-17T00:15:09.396Z,17.90
2018-09-17T00:15:43.419Z,17.90
2018-09-17T00:16:16.695Z,17.90
2018-09-17T00:16:49.195Z,17.90
2018-09-17T00:17:21.707Z,17.90
2018-09-17T00:17:54.207Z,17.90
2018-09-17T00:18:26.715Z,17.90
2018-09-17T00:18:59.216Z,17.90
2018-09-17T00:19:32.491Z,17.90
2018-09-17T00:20:05.002Z,17.90
2018-09-17T00:20:37.513Z,17.90
2018-09-17T00:21:10.779Z,17.90
2018-09-17T00:21:43.288Z,17.90
2018-09-17T00:22:15.801Z,17.90
2018-09-17T00:22:48.297Z,17.90
2018-09-17T00:23:20.815Z,17.80
2018-09-17T00:23:53.318Z,17.80
2018-09-17T00:24:25.820Z,17.80
2018-09-17T00:24:58.325Z,17.80
2018-09-17T00:25:30.818Z,17.80
2018-09-17T00:26:03.334Z,17.80
2018-09-17T00:26:35.831Z,17.80
2018-09-17T00:27:08.371Z,17.80
2018-09-17T00:27:41.655Z,17.80
2018-09-17T00:28:14.938Z,17.80
2018-09-17T00:28:47.751Z,17.80
2018-09-17T00:29:20.255Z,17.80
2018-09-17T00:29:52.760Z,17.80
2018-09-17T00:30:25.267Z,17.80
2018-09-17T00:30:57.788Z,17.80
2018-09-17T00:31:30.295Z,17.80
2018-09-17T00:32:02.795Z,17.80
2018-09-17T00:32:35.323Z,17.80
2018-09-17T00:33:07.806Z,17.80
2018-09-17T00:33:40.318Z,17.80
2018-09-17T00:34:12.831Z,17.80
2018-09-17T00:34:46.108Z,17.70
2018-09-17T00:35:18.608Z,17.70
2018-09-17T00:35:51.110Z,17.80
2018-09-17T00:36:23.888Z,17.70
2018-09-17T00:36:56.371Z,17.70
2018-09-17T00:37:28.948Z,17.70
2018-09-17T00:38:01.763Z,17.80
2018-09-17T00:38:34.263Z,17.70
2018-09-17T00:39:06.800Z,17.70
2018-09-17T00:39:39.294Z,17.70
2018-09-17T00:40:11.826Z,17.70
2018-09-17T00:40:44.327Z,17.70
2018-09-17T00:41:17.052Z,17.70
2018-09-17T00:41:49.547Z,17.70
2018-09-17T00:42:22.829Z,17.70
2018-09-17T00:42:56.105Z,17.70
2018-09-17T00:43:29.550Z,17.70
2018-09-17T00:44:02.055Z,17.70
2018-09-17T00:44:34.564Z,17.60
2018-09-17T00:45:07.064Z,17.70
2018-09-17T00:45:39.555Z,17.70
2018-09-17T00:46:12.067Z,17.70
2018-09-17T00:46:44.575Z,17.60
2018-09-17T00:47:17.091Z,17.60
2018-09-17T00:47:50.383Z,17.70
2018-09-17T00:48:22.896Z,17.60
2018-09-17T00:48:55.404Z,17.60
2018-09-17T00:49:27.895Z,17.60
2018-09-17T00:50:01.167Z,17.60
2018-09-17T00:50:34.442Z,17.60
2018-09-17T00:51:06.943Z,17.60
2018-09-17T00:51:39.455Z,17.60
2018-09-17T00:52:11.952Z,17.60
2018-09-17T00:52:44.499Z,17.60
2018-09-17T00:53:16.994Z,17.60
2018-09-17T00:53:49.496Z,17.60
2018-09-17T00:54:21.994Z,17.50
2018-09-17T00:54:54.489Z,17.60
2018-09-17T00:55:27.056Z,17.60
2018-09-17T00:55:59.575Z,17.60
2018-09-17T00:56:32.092Z,17.50
2018-09-17T00:57:04.704Z,17.50
2018-09-17T00:57:37.523Z,17.50
2018-09-17T00:58:10.049Z,17.60
2018-09-17T00:58:42.564Z,17.50
2018-09-17T00:59:15.072Z,17.50
2018-09-17T00:59:47.564Z,17.50
2018-09-17T01:00:20.060Z,17.50
2018-09-17T01:00:52.789Z,17.50
2018-09-17T01:01:25.296Z,17.50
2018-09-17T01:01:58.580Z,17.50
2018-09-17T01:02:31.071Z,17.50
2018-09-17T01:03:03.584Z,17.50
2018-09-17T01:03:36.091Z,17.50
2018-09-17T01:04:08.603Z,17.50
2018-09-17T01:04:41.111Z,17.50
2018-09-17T01:05:13.935Z,17.50
2018-09-17T01:05:46.441Z,17.50
2018-09-17T01:06:19.255Z,17.50
2018-09-17T01:06:51.761Z,17.50
2018-09-17T01:07:25.030Z,17.50
2018-09-17T01:07:58.305Z,17.50
2018-09-17T01:08:31.575Z,17.40
2018-09-17T01:09:04.081Z,17.40
2018-09-17T01:09:36.580Z,17.50
2018-09-17T01:10:09.094Z,17.50
2018-09-17T01:10:41.609Z,17.40
2018-09-17T01:11:14.138Z,17.40
2018-09-17T01:11:46.655Z,17.40
2018-09-17T01:12:19.182Z,17.40
2018-09-17T01:12:51.665Z,17.40
2018-09-17T01:13:24.168Z,17.40
2018-09-17T01:13:56.685Z,17.40
2018-09-17T01:14:29.198Z,17.40
2018-09-17T01:15:01.703Z,17.40
2018-09-17T01:15:34.195Z,17.40
2018-09-17T01:16:07.458Z,17.40
2018-09-17T01:16:39.967Z,17.40
2018-09-17T01:17:12.467Z,17.40
2018-09-17T01:17:44.975Z,17.40
2018-09-17T01:18:17.482Z,17.40
2018-09-17T01:18:50.002Z,17.30
2018-09-17T01:19:22.511Z,17.40
2018-09-17T01:19:55.014Z,17.30
2018-09-17T01:20:27.515Z,17.40
2018-09-17T01:21:00.015Z,17.40
2018-09-17T01:21:32.527Z,17.40
2018-09-17T01:22:05.033Z,17.30
2018-09-17T01:22:37.527Z,17.30
2018-09-17T01:23:10.816Z,17.40
2018-09-17T01:23:43.331Z,17.40
2018-09-17T01:24:15.879Z,17.30
2018-09-17T01:24:49.119Z,17.40
2018-09-17T01:25:22.423Z,17.30
2018-09-17T01:25:54.888Z,17.40
2018-09-17T01:26:27.385Z,17.40
2018-09-17T01:26:59.898Z,17.30
2018-09-17T01:27:32.396Z,17.30
2018-09-17T01:28:04.924Z,17.30
2018-09-17T01:28:37.409Z,17.30
2018-09-17T01:29:09.907Z,17.30
2018-09-17T01:29:42.402Z,17.30
2018-09-17T01:30:14.940Z,17.30
2018-09-17T01:30:47.439Z,17.30
2018-09-17T01:31:19.935Z,17.30
2018-09-17T01:31:52.431Z,17.30
2018-09-17T01:32:24.922Z,17.30
2018-09-17T01:32:57.432Z,17.30
2018-09-17T01:33:29.950Z,17.20
2018-09-17T01:34:02.462Z,17.20
2018-09-17T01:34:34.967Z,17.30
2018-09-17T01:35:07.513Z,17.20
2018-09-17T01:35:40.044Z,17.20
2018-09-17T01:36:12.567Z,17.20
2018-09-17T01:36:45.080Z,17.20
2018-09-17T01:37:18.359Z,17.20
2018-09-17T01:37:50.872Z,17.20
2018-09-17T01:38:23.414Z,17.20
2018-09-17T01:38:55.960Z,17.20
2018-09-17T01:39:28.460Z,17.20
2018-09-17T01:40:01.268Z,17.20
2018-09-17T01:40:34.579Z,17.20
2018-09-17T01:41:07.072Z,17.20
2018-09-17T01:41:40.033Z,17.20
2018-09-17T01:42:42.978Z,17.20
2018-09-17T01:43:16.262Z,17.20
2018-09-17T01:43:49.528Z,17.20
2018-09-17T01:44:22.283Z,17.20
2018-09-17T01:44:54.785Z,17.20
2018-09-17T01:45:27.301Z,17.20
2018-09-17T01:45:59.795Z,17.20
2018-09-17T01:46:33.075Z,17.10
2018-09-17T01:47:05.563Z,17.10
2018-09-17T01:47:38.070Z,17.10
2018-09-17T01:48:10.563Z,17.10
2018-09-17T01:48:43.853Z,17.10
2018-09-17T01:49:17.124Z,17.10
2018-09-17T01:49:49.859Z,17.10
2018-09-17T01:50:22.380Z,17.10
2018-09-17T01:50:54.876Z,17.10
2018-09-17T01:51:27.850Z,17.10
2018-09-17T01:52:00.864Z,17.10
2018-09-17T01:52:33.454Z,17.10
2018-09-17T01:53:06.415Z,17.10
2018-09-17T01:53:39.452Z,17.10
2018-09-17T01:54:12.507Z,17.10
2018-09-17T01:54:45.545Z,17.10
2018-09-17T01:55:19.332Z,17.10
2018-09-17T01:55:52.367Z,17.00
2018-09-17T01:56:25.409Z,17.10
2018-09-17T01:56:59.179Z,17.10
2018-09-17T01:57:32.973Z,17.10
2018-09-17T01:58:06.768Z,17.00
2018-09-17T01:58:40.607Z,17.10
2018-09-17T01:59:13.640Z,17.10
2018-09-17T01:59:47.450Z,17.00
2018-09-17T02:00:20.492Z,17.00
2018-09-17T02:00:54.286Z,17.10
2018-09-17T02:01:28.093Z,17.00
2018-09-17T02:02:01.888Z,17.00
2018-09-17T02:02:35.688Z,17.00
2018-09-17T02:03:09.482Z,17.00
2018-09-17T02:03:42.529Z,17.00
2018-09-17T02:04:15.556Z,17.00
2018-09-17T02:04:48.571Z,17.00
2018-09-17T02:05:21.602Z,17.00
2018-09-17T02:05:54.628Z,17.00
2018-09-17T02:06:27.753Z,17.00
2018-09-17T02:07:00.776Z,17.00
2018-09-17T02:07:33.792Z,17.00
2018-09-17T02:08:06.926Z,17.00
2018-09-17T02:08:40.677Z,17.00
2018-09-17T02:09:14.429Z,17.00
2018-09-17T02:09:48.278Z,17.00
2018-09-17T02:10:21.269Z,17.00
2018-09-17T02:10:54.637Z,17.00
2018-09-17T02:11:27.134Z,16.90
2018-09-17T02:11:59.664Z,17.00
2018-09-17T02:12:32.183Z,17.00
2018-09-17T02:13:04.683Z,17.00
2018-09-17T02:13:37.199Z,17.00
2018-09-17T02:14:09.716Z,17.00
2018-09-17T02:14:42.216Z,17.00
2018-09-17T02:15:14.728Z,17.00
2018-09-17T02:15:47.246Z,17.00
2018-09-17T02:16:19.736Z,17.00
2018-09-17T02:16:52.255Z,16.90
2018-09-17T02:17:24.755Z,17.00
2018-09-17T02:17:57.256Z,17.00
2018-09-17T02:18:30.531Z,16.90
2018-09-17T02:19:03.816Z,16.90
2018-09-17T02:19:37.094Z,16.90
2018-09-17T02:20:10.364Z,16.90
2018-09-17T02:20:43.643Z,16.60
2018-09-17T02:21:16.139Z,16.90
2018-09-17T02:21:48.655Z,16.90
2018-09-17T02:22:21.156Z,16.90
2018-09-17T02:22:54.411Z,16.90
2018-09-17T02:23:26.932Z,16.90
2018-09-17T02:23:59.448Z,16.90
2018-09-17T02:24:31.954Z,16.90
2018-09-17T02:25:04.906Z,16.90
2018-09-17T02:25:38.702Z,16.90
2018-09-17T02:26:12.511Z,16.90
2018-09-17T02:26:45.554Z,16.90
2018-09-17T02:27:19.380Z,16.90
2018-09-17T02:27:52.395Z,16.80
2018-09-17T02:28:25.754Z,16.90
2018-09-17T02:28:58.749Z,16.80
2018-09-17T02:29:31.781Z,16.80
2018-09-17T02:30:04.811Z,16.80
2018-09-17T02:30:37.844Z,16.80
2018-09-17T02:31:10.874Z,16.80
2018-09-17T02:31:43.917Z,16.80
2018-09-17T02:32:16.949Z,16.80
2018-09-17T02:32:50.044Z,16.80
2018-09-17T02:33:23.068Z,16.80
2018-09-17T02:33:56.116Z,16.80
2018-09-17T02:34:29.139Z,16.80
2018-09-17T02:35:02.185Z,16.80
2018-09-17T02:35:35.216Z,16.80
2018-09-17T02:36:08.260Z,16.80
2018-09-17T02:36:42.065Z,16.80
2018-09-17T02:37:15.357Z,16.80
2018-09-17T02:37:48.394Z,16.80
2018-09-17T02:38:21.418Z,16.80
2018-09-17T02:38:54.459Z,16.80
2018-09-17T02:39:27.487Z,16.80
2018-09-17T02:40:00.549Z,16.80
2018-09-17T02:40:33.596Z,16.80
2018-09-17T02:41:06.628Z,16.80
2018-09-17T02:41:39.664Z,16.80
2018-09-17T02:42:12.688Z,16.80
2018-09-17T02:42:45.733Z,16.80
2018-09-17T02:43:18.761Z,16.70
2018-09-17T02:43:51.793Z,16.80
2018-09-17T02:44:24.840Z,16.70
2018-09-17T02:44:57.877Z,16.80
2018-09-17T02:45:31.648Z,16.70
2018-09-17T02:46:04.690Z,16.70
2018-09-17T02:46:37.721Z,16.70
2018-09-17T02:47:10.742Z,16.70
2018-09-17T02:47:43.774Z,16.70
2018-09-17T02:48:16.805Z,16.70
2018-09-17T02:48:49.829Z,16.70
2018-09-17T02:49:22.860Z,16.70
2018-09-17T02:49:55.901Z,16.70
2018-09-17T02:50:29.696Z,16.70
2018-09-17T02:51:02.716Z,16.70
2018-09-17T02:51:35.745Z,16.70
2018-09-17T02:52:08.774Z,16.70
2018-09-17T02:52:42.568Z,16.70
2018-09-17T02:53:16.606Z,16.70
2018-09-17T02:53:49.620Z,16.70
2018-09-17T02:54:22.663Z,16.70
2018-09-17T02:54:56.457Z,16.70
2018-09-17T02:55:29.486Z,16.70
2018-09-17T02:56:03.285Z,16.70
2018-09-17T02:56:36.319Z,16.60
2018-09-17T02:57:09.352Z,16.70
2018-09-17T02:57:43.243Z,16.60
2018-09-17T02:58:16.301Z,16.70
2018-09-17T02:58:50.079Z,16.60
2018-09-17T02:59:23.143Z,16.60
2018-09-17T02:59:56.181Z,16.60
2018-09-17T03:00:29.219Z,16.60
2018-09-17T03:01:02.244Z,16.60
2018-09-17T03:01:35.411Z,16.60
2018-09-17T03:02:08.408Z,16.60
2018-09-17T03:02:41.432Z,16.60
2018-09-17T03:03:14.457Z,16.60
2018-09-17T03:03:47.489Z,16.60
2018-09-17T03:04:20.525Z,16.60
2018-09-17T03:04:54.322Z,16.60
2018-09-17T03:05:28.115Z,16.60
2018-09-17T03:06:01.915Z,16.60
2018-09-17T03:06:34.952Z,16.60
2018-09-17T03:07:07.984Z,16.60
2018-09-17T03:07:41.009Z,16.60
2018-09-17T03:08:14.040Z,16.60
2018-09-17T03:08:47.200Z,16.60
2018-09-17T03:09:20.209Z,16.60
2018-09-17T03:09:52.787Z,16.50
2018-09-17T03:10:26.059Z,16.60
2018-09-17T03:10:58.561Z,16.60
2018-09-17T03:11:31.055Z,16.60
2018-09-17T03:12:03.563Z,16.60
2018-09-17T03:12:36.532Z,16.60
2018-09-17T03:13:09.119Z,16.60
2018-09-17T03:13:41.623Z,16.50
2018-09-17T03:14:14.135Z,16.50
2018-09-17T03:14:47.863Z,16.50
2018-09-17T03:15:26.362Z,16.50
2018-09-17T03:15:58.875Z,16.50
2018-09-17T03:16:32.171Z,16.50
2018-09-17T03:17:04.684Z,16.50
2018-09-17T03:17:37.692Z,16.50
2018-09-17T03:18:10.708Z,16.50
2018-09-17T03:18:43.748Z,16.50
2018-09-17T03:19:16.781Z,16.50
2018-09-17T03:19:49.379Z,16.50
2018-09-17T03:20:22.656Z,16.50
2018-09-17T03:20:55.602Z,16.50
2018-09-17T03:21:28.636Z,16.40
2018-09-17T03:22:02.447Z,16.50
2018-09-17T03:22:35.475Z,16.40
2018-09-17T03:23:08.514Z,16.50
2018-09-17T03:23:41.545Z,16.40
2018-09-17T03:24:14.561Z,16.50
2018-09-17T03:24:48.377Z,16.50
2018-09-17T03:25:22.176Z,16.50
2018-09-17T03:25:55.217Z,16.40
2018-09-17T03:26:28.249Z,16.50
2018-09-17T03:27:01.291Z,16.40
2018-09-17T03:27:34.321Z,16.40
2018-09-17T03:28:07.352Z,16.40
2018-09-17T03:28:40.395Z,16.40
2018-09-17T03:29:13.404Z,16.40
2018-09-17T03:29:46.500Z,16.40
2018-09-17T03:30:20.288Z,16.40
2018-09-17T03:30:54.089Z,16.40
2018-09-17T03:31:27.884Z,16.40
2018-09-17T03:32:01.696Z,16.40
2018-09-17T03:32:34.747Z,16.30
2018-09-17T03:33:07.765Z,16.40
2018-09-17T03:33:40.789Z,16.40
2018-09-17T03:34:14.583Z,16.40
2018-09-17T03:34:48.412Z,16.30
2018-09-17T03:35:21.436Z,16.30
2018-09-17T03:35:55.968Z,16.30
2018-09-17T03:36:29.757Z,16.30
2018-09-17T03:37:03.564Z,16.30
2018-09-17T03:37:36.592Z,16.30
2018-09-17T03:38:09.634Z,16.30
2018-09-17T03:38:42.659Z,16.30
2018-09-17T03:39:16.457Z,16.30
2018-09-17T03:39:50.268Z,16.30
2018-09-17T03:40:24.063Z,16.30
2018-09-17T03:40:57.088Z,16.30
2018-09-17T03:41:30.118Z,16.30
2018-09-17T03:42:03.155Z,16.30
2018-09-17T03:42:36.180Z,16.30
2018-09-17T03:43:09.213Z,16.30
2018-09-17T03:43:42.235Z,16.30
2018-09-17T03:44:15.255Z,16.30
2018-09-17T03:44:48.307Z,16.30
2018-09-17T03:45:21.336Z,16.30
2018-09-17T03:45:54.359Z,16.30
2018-09-17T03:46:27.433Z,16.30
2018-09-17T03:47:00.432Z,16.20
2018-09-17T03:47:33.483Z,16.20
2018-09-17T03:48:06.496Z,16.20
2018-09-17T03:48:40.292Z,16.30
2018-09-17T03:49:14.080Z,16.30
2018-09-17T03:49:47.888Z,16.20
2018-09-17T03:50:20.916Z,16.20
2018-09-17T03:50:53.934Z,16.20
2018-09-17T03:51:26.966Z,16.20
2018-09-17T03:52:00.003Z,16.20
2018-09-17T03:52:33.041Z,16.20
2018-09-17T03:53:06.063Z,16.20
2018-09-17T03:53:39.106Z,16.20
2018-09-17T03:54:12.140Z,16.20
2018-09-17T03:54:45.172Z,16.20
2018-09-17T03:55:18.226Z,16.10
2018-09-17T03:55:52.002Z,16.20
2018-09-17T03:56:25.799Z,16.20
2018-09-17T03:56:59.589Z,16.20
2018-09-17T03:57:33.378Z,16.20
2018-09-17T03:58:07.181Z,16.20
2018-09-17T03:58:40.973Z,16.20
2018-09-17T03:59:14.775Z,16.20
2018-09-17T03:59:47.799Z,16.10
2018-09-17T04:00:20.833Z,16.10
2018-09-17T04:00:53.855Z,16.10
2018-09-17T04:01:26.888Z,16.20
2018-09-17T04:01:59.919Z,16.20
2018-09-17T04:02:32.949Z,16.20
2018-09-17T04:03:05.963Z,16.10
2018-09-17T04:03:38.994Z,16.00
2018-09-17T04:04:12.025Z,16.00
2018-09-17T04:04:45.056Z,16.00
2018-09-17T04:05:18.093Z,16.00
2018-09-17T04:05:51.884Z,16.00
2018-09-17T04:06:25.674Z,16.00
2018-09-17T04:06:58.712Z,16.00
2018-09-17T04:07:31.739Z,16.00
2018-09-17T04:08:04.768Z,16.00
2018-09-17T04:08:37.792Z,16.00
2018-09-17T04:09:10.880Z,16.00
2018-09-17T04:09:43.836Z,16.00
2018-09-17T04:10:16.879Z,16.00
2018-09-17T04:10:51.086Z,16.00
2018-09-17T04:11:24.116Z,16.00
2018-09-17T04:11:57.145Z,16.00
2018-09-17T04:12:30.933Z,16.00
2018-09-17T04:13:03.969Z,16.00
2018-09-17T04:13:37.014Z,16.00
2018-09-17T04:14:10.039Z,16.00
2018-09-17T04:14:43.113Z,16.00
2018-09-17T04:15:16.139Z,16.00
2018-09-17T04:15:49.187Z,16.00
2018-09-17T04:16:22.215Z,16.00
2018-09-17T04:16:55.488Z,15.90
2018-09-17T04:17:28.511Z,15.90
2018-09-17T04:18:01.544Z,15.90
2018-09-17T04:18:34.604Z,15.90
2018-09-17T04:19:07.648Z,15.90
2018-09-17T04:19:40.680Z,16.00
2018-09-17T04:20:13.728Z,16.00
2018-09-17T04:20:46.747Z,16.00
2018-09-17T04:21:20.549Z,16.00
2018-09-17T04:21:54.341Z,15.90
2018-09-17T04:22:27.380Z,15.90
2018-09-17T04:23:00.404Z,16.00
2018-09-17T04:23:33.440Z,16.00
2018-09-17T04:24:06.471Z,15.90
2018-09-17T04:24:39.499Z,15.90
2018-09-17T04:25:13.324Z,15.90
2018-09-17T04:25:46.364Z,15.90
2018-09-17T04:26:19.384Z,16.00
2018-09-17T04:26:52.413Z,15.90
2018-09-17T04:27:26.201Z,15.90
2018-09-17T04:27:59.235Z,15.90
2018-09-17T04:28:32.259Z,15.90
2018-09-17T04:29:06.054Z,15.90
2018-09-17T04:29:39.848Z,15.90
2018-09-17T04:30:13.640Z,15.90
2018-09-17T04:30:46.706Z,15.90
2018-09-17T04:31:20.496Z,15.90
2018-09-17T04:31:54.287Z,15.90
2018-09-17T04:32:27.328Z,15.90
2018-09-17T04:33:00.348Z,15.90
2018-09-17T04:33:34.143Z,15.90
2018-09-17T04:34:07.934Z,15.80
2018-09-17T04:34:41.715Z,15.90
2018-09-17T04:35:14.755Z,15.90
2018-09-17T04:35:47.809Z,15.90
2018-09-17T04:36:20.828Z,15.90
2018-09-17T04:36:53.868Z,15.80
2018-09-17T04:37:26.942Z,15.90
2018-09-17T04:37:59.968Z,15.90
2018-09-17T04:38:33.763Z,15.80
2018-09-17T04:39:06.816Z,15.80
2018-09-17T04:39:39.916Z,15.80
2018-09-17T04:40:12.881Z,15.90
2018-09-17T04:40:46.687Z,15.80
2018-09-17T04:41:19.719Z,15.80
2018-09-17T04:41:52.764Z,15.80
2018-09-17T04:42:25.787Z,15.80
2018-09-17T04:42:58.821Z,15.80
2018-09-17T04:43:31.868Z,15.80
2018-09-17T04:44:04.900Z,15.80
2018-09-17T04:44:37.948Z,15.80
2018-09-17T04:45:10.971Z,15.80
2018-09-17T04:45:44.788Z,15.80
2018-09-17T04:46:17.817Z,15.70
2018-09-17T04:46:50.868Z,15.80
2018-09-17T04:47:23.900Z,15.80
2018-09-17T04:47:56.939Z,15.80
2018-09-17T04:48:30.216Z,15.80
2018-09-17T04:49:03.268Z,15.70
2018-09-17T04:49:36.308Z,15.80
2018-09-17T04:50:10.099Z,15.80
2018-09-17T04:50:43.136Z,15.70
2018-09-17T04:51:16.174Z,15.80
2018-09-17T04:51:49.227Z,15.80
2018-09-17T04:52:22.270Z,15.80
2018-09-17T04:52:55.295Z,15.80
2018-09-17T04:53:28.315Z,15.80
2018-09-17T04:54:01.340Z,15.80
2018-09-17T04:54:34.377Z,15.80
2018-09-17T04:55:08.180Z,15.80
2018-09-17T04:55:41.976Z,15.80
2018-09-17T04:56:15.803Z,15.80
2018-09-17T04:56:48.839Z,15.80
2018-09-17T04:57:21.895Z,15.80
2018-09-17T04:57:54.891Z,15.80
2018-09-17T04:58:28.679Z,15.80
2018-09-17T04:59:02.481Z,15.80
2018-09-17T04:59:35.521Z,15.70
2018-09-17T05:00:08.560Z,15.80
2018-09-17T05:00:41.576Z,15.80
2018-09-17T05:01:14.615Z,15.80
2018-09-17T05:01:47.648Z,15.80
2018-09-17T05:02:20.677Z,15.80
2018-09-17T05:02:53.699Z,15.80
2018-09-17T05:03:26.735Z,15.80
2018-09-17T05:03:59.781Z,15.80
2018-09-17T05:04:32.837Z,15.80
2018-09-17T05:05:05.871Z,15.80
2018-09-17T05:05:38.898Z,15.80
2018-09-17T05:06:11.930Z,15.80
2018-09-17T05:06:45.716Z,15.80
2018-09-17T05:07:18.772Z,15.80
2018-09-17T05:07:51.780Z,15.80
2018-09-17T05:08:25.573Z,15.70
2018-09-17T05:08:59.369Z,15.70
2018-09-17T05:09:33.158Z,15.70
2018-09-17T05:10:06.957Z,15.70
2018-09-17T05:10:39.980Z,15.70
2018-09-17T05:11:13.025Z,15.70
2018-09-17T05:11:46.043Z,15.70
2018-09-17T05:12:19.086Z,15.70
2018-09-17T05:12:52.234Z,15.70
2018-09-17T05:13:25.343Z,15.70
2018-09-17T05:13:58.262Z,15.70
2018-09-17T05:14:31.285Z,15.70
2018-09-17T05:15:04.465Z,15.70
2018-09-17T05:15:37.508Z,15.70
2018-09-17T05:16:10.549Z,15.70
2018-09-17T05:16:43.575Z,15.70
2018-09-17T05:17:16.620Z,15.70
2018-09-17T05:17:49.643Z,15.70
2018-09-17T05:18:22.663Z,15.60
2018-09-17T05:18:56.460Z,15.70
2018-09-17T05:19:30.254Z,15.70
2018-09-17T05:20:04.052Z,15.70
2018-09-17T05:20:37.900Z,15.70
2018-09-17T05:21:11.664Z,15.70
2018-09-17T05:21:44.689Z,15.70
2018-09-17T05:22:17.721Z,15.70
2018-09-17T05:22:50.747Z,15.70
2018-09-17T05:23:24.558Z,15.70
2018-09-17T05:23:58.343Z,15.70
2018-09-17T05:24:32.137Z,15.70
2018-09-17T05:25:05.936Z,15.70
2018-09-17T05:25:38.964Z,15.70
2018-09-17T05:26:12.013Z,15.60
2018-09-17T05:26:45.812Z,15.60
2018-09-17T05:27:18.845Z,15.60
2018-09-17T05:27:52.628Z,15.60
2018-09-17T05:28:26.419Z,15.70
2018-09-17T05:29:00.288Z,15.70
2018-09-17T05:29:33.324Z,15.60
2018-09-17T05:30:06.364Z,15.60
2018-09-17T05:30:40.172Z,15.60
2018-09-17T05:31:13.983Z,15.70
2018-09-17T05:31:47.025Z,15.70
2018-09-17T05:32:20.068Z,15.70
2018-09-17T05:32:53.303Z,15.60
2018-09-17T05:33:26.396Z,15.60
2018-09-17T05:33:59.459Z,15.60
2018-09-17T05:34:32.448Z,15.60
2018-09-17T05:35:05.519Z,15.60
2018-09-17T05:35:38.543Z,15.60
2018-09-17T05:36:11.584Z,15.60
2018-09-17T05:36:44.613Z,15.60
2018-09-17T05:37:17.652Z,15.60
2018-09-17T05:37:50.683Z,15.60
2018-09-17T05:38:23.708Z,15.60
2018-09-17T05:38:56.751Z,15.70
2018-09-17T05:39:29.788Z,15.60
2018-09-17T05:40:02.820Z,15.60
2018-09-17T05:40:35.848Z,15.60
2018-09-17T05:41:08.874Z,15.60
2018-09-17T05:41:41.925Z,15.70
2018-09-17T05:42:14.959Z,15.60
2018-09-17T05:42:47.992Z,15.60
2018-09-17T05:43:21.026Z,15.60
2018-09-17T05:43:54.048Z,15.60
2018-09-17T05:44:27.251Z,15.60
2018-09-17T05:45:00.216Z,15.60
2018-09-17T05:45:34.250Z,15.60
2018-09-17T05:46:07.288Z,15.60
2018-09-17T05:46:41.116Z,15.60
2018-09-17T05:47:14.131Z,15.60
2018-09-17T05:47:47.163Z,15.60
2018-09-17T05:48:20.184Z,15.60
2018-09-17T05:48:53.216Z,15.60
2018-09-17T05:49:27.016Z,15.60
2018-09-17T05:50:00.040Z,15.60
2018-09-17T05:50:33.073Z,15.60
2018-09-17T05:51:06.104Z,15.60
2018-09-17T05:51:39.920Z,15.60
2018-09-17T05:52:12.955Z,15.60
2018-09-17T05:52:45.983Z,15.60
2018-09-17T05:53:19.020Z,15.60
2018-09-17T05:53:52.880Z,15.60
2018-09-17T05:54:26.612Z,15.60
2018-09-17T05:54:59.645Z,15.60
2018-09-17T05:55:32.685Z,15.60
2018-09-17T05:56:05.704Z,15.60
2018-09-17T05:56:38.755Z,15.60
2018-09-17T05:57:11.803Z,15.70
2018-09-17T05:57:44.827Z,15.60
2018-09-17T05:58:17.853Z,15.60
2018-09-17T05:58:50.884Z,15.60
2018-09-17T05:59:23.939Z,15.60
2018-09-17T05:59:57.731Z,15.60
2018-09-17T06:00:30.751Z,15.60
2018-09-17T06:01:03.777Z,15.60
2018-09-17T06:01:36.812Z,15.60
2018-09-17T06:02:09.864Z,15.60
2018-09-17T06:02:43.657Z,15.60
2018-09-17T06:03:17.461Z,15.70
2018-09-17T06:03:51.247Z,15.70
2018-09-17T06:04:25.035Z,15.70
2018-09-17T06:04:58.836Z,15.60
2018-09-17T06:05:32.660Z,15.60
2018-09-17T06:06:06.516Z,15.70
2018-09-17T06:06:39.472Z,15.60
2018-09-17T06:07:12.588Z,15.70
2018-09-17T06:07:45.536Z,15.70
2018-09-17T06:08:19.335Z,15.60
2018-09-17T06:08:52.387Z,15.60
2018-09-17T06:09:25.405Z,15.60
2018-09-17T06:09:58.440Z,15.70
2018-09-17T06:10:32.252Z,15.70
2018-09-17T06:11:06.059Z,15.70
2018-09-17T06:11:39.133Z,15.60
2018-09-17T06:12:12.139Z,15.70
2018-09-17T06:12:45.193Z,15.70
2018-09-17T06:13:18.210Z,15.70
2018-09-17T06:13:51.244Z,15.70
2018-09-17T06:14:24.278Z,15.70
2018-09-17T06:14:58.080Z,15.70
2018-09-17T06:15:31.877Z,15.70
2018-09-17T06:16:05.655Z,15.80
2018-09-17T06:16:39.459Z,15.80
2018-09-17T06:17:12.513Z,15.70
2018-09-17T06:17:45.545Z,15.70
2018-09-17T06:18:18.592Z,15.80
2018-09-17T06:18:51.615Z,15.80
2018-09-17T06:19:25.425Z,15.80
2018-09-17T06:19:58.427Z,15.80
2018-09-17T06:20:31.455Z,15.80
2018-09-17T06:21:04.498Z,15.80
2018-09-17T06:21:37.523Z,15.90
2018-09-17T06:22:10.559Z,15.90
2018-09-17T06:22:43.592Z,15.90
2018-09-17T06:23:17.405Z,15.90
2018-09-17T06:23:50.431Z,15.90
2018-09-17T06:24:23.467Z,15.90
2018-09-17T06:24:56.491Z,15.90
2018-09-17T06:25:30.287Z,15.90
2018-09-17T06:26:03.318Z,15.90
2018-09-17T06:26:36.425Z,15.90
2018-09-17T06:27:09.411Z,15.90
2018-09-17T06:27:42.447Z,15.90
2018-09-17T06:28:15.471Z,16.00
2018-09-17T06:28:49.343Z,16.00
2018-09-17T06:29:22.363Z,15.90
2018-09-17T06:29:55.389Z,16.00
2018-09-17T06:30:29.288Z,16.00
2018-09-17T06:31:02.328Z,16.00
2018-09-17T06:31:34.911Z,16.00
2018-09-17T06:32:08.648Z,16.00
2018-09-17T06:32:41.687Z,16.00
2018-09-17T06:33:14.739Z,16.10
2018-09-17T06:33:47.788Z,16.10
2018-09-17T06:34:20.820Z,16.10
2018-09-17T06:34:53.889Z,16.10
2018-09-17T06:35:26.942Z,16.10
2018-09-17T06:35:59.967Z,16.10
2018-09-17T06:36:33.000Z,16.20
2018-09-17T06:37:06.059Z,16.20
2018-09-17T06:37:39.102Z,16.20
2018-09-17T06:38:11.677Z,16.20
2018-09-17T06:38:44.633Z,16.20
2018-09-17T06:39:17.656Z,16.30
2018-09-17T06:39:50.684Z,16.30
2018-09-17T06:40:23.718Z,16.30
2018-09-17T06:40:56.750Z,16.30
2018-09-17T06:41:29.834Z,16.30
2018-09-17T06:42:03.580Z,16.40
2018-09-17T06:42:36.963Z,16.40
2018-09-17T06:43:09.446Z,16.40
2018-09-17T06:43:41.961Z,16.40
2018-09-17T06:44:15.676Z,16.50
2018-09-17T06:44:49.085Z,16.40
2018-09-17T06:45:22.264Z,16.40
2018-09-17T06:45:55.306Z,16.50
2018-09-17T06:46:29.119Z,16.50
2018-09-17T06:47:02.912Z,16.50
2018-09-17T06:47:36.700Z,16.60
2018-09-17T06:48:09.747Z,16.60
2018-09-17T06:48:42.792Z,16.60
2018-09-17T06:49:15.812Z,16.60
2018-09-17T06:49:49.615Z,16.60
2018-09-17T06:50:22.644Z,16.60
2018-09-17T06:50:55.676Z,16.60
2018-09-17T06:51:28.736Z,16.70
2018-09-17T06:52:01.743Z,16.70
2018-09-17T06:52:34.768Z,16.70
2018-09-17T06:53:08.578Z,17.00
2018-09-17T06:53:42.415Z,16.80
2018-09-17T06:54:16.170Z,16.80
2018-09-17T06:54:49.951Z,16.80
2018-09-17T06:55:23.744Z,16.90
2018-09-17T06:55:57.700Z,16.90
2018-09-17T06:56:30.700Z,16.90
2018-09-17T06:57:04.500Z,16.90
2018-09-17T06:57:37.859Z,17.00
2018-09-17T06:58:11.148Z,17.00
2018-09-17T06:58:44.427Z,17.00
2018-09-17T06:59:17.799Z,17.10
2018-09-17T06:59:51.087Z,17.10
2018-09-17T07:00:23.577Z,17.10
2018-09-17T07:00:56.850Z,17.20
2018-09-17T07:01:29.375Z,17.10
2018-09-17T07:02:01.877Z,17.20
2018-09-17T07:03:05.667Z,17.30
2018-09-17T07:03:38.169Z,17.30
2018-09-17T07:04:10.667Z,17.30
2018-09-17T07:04:43.955Z,17.40
2018-09-17T07:05:17.241Z,17.40
2018-09-17T07:05:50.503Z,17.40
2018-09-17T07:06:23.771Z,17.50
2018-09-17T07:06:56.280Z,17.40